createdAt,value
2018-02-24T00:00:36.238Z,-5.51
2018-02-24T00:03:02.104Z,-5.48
2018-02-24T00:05:28.134Z,-5.58
2018-02-24T00:07:54.116Z,-5.59
2018-02-24T00:10:19.986Z,-5.63
2018-02-24T00:12:45.859Z,-5.53
2018-02-24T00:15:12.790Z,-5.52
2018-02-24T00:17:38.785Z,-5.52
2018-02-24T00:20:04.787Z,-5.52
2018-02-24T00:22:41.822Z,-5.65
2018-02-24T00:25:07.692Z,-5.55
2018-02-24T00:27:33.558Z,-5.62
2018-02-24T00:29:59.626Z,-5.67
2018-02-24T00:32:25.561Z,-5.69
2018-02-24T00:34:51.421Z,-5.73
2018-02-24T00:37:17.328Z,-5.76
2018-02-24T00:39:43.172Z,-5.72
2018-02-24T00:42:09.145Z,-5.80
2018-02-24T00:44:35.112Z,-5.82
2018-02-24T00:47:01.035Z,-5.85
2018-02-24T00:49:26.909Z,-5.86
2018-02-24T00:51:52.823Z,-5.87
2018-02-24T00:54:18.830Z,-5.89
2018-02-24T00:56:44.916Z,-6.02
2018-02-24T00:59:10.853Z,-6.05
2018-02-24T01:01:36.749Z,-6.03
2018-02-24T01:04:02.642Z,-6.13
2018-02-24T01:06:28.785Z,-6.16
2018-02-24T01:08:54.740Z,-6.18
2018-02-24T01:11:20.610Z,-6.18
2018-02-24T01:13:46.518Z,-6.07
2018-02-24T01:16:12.404Z,-6.18
2018-02-24T01:18:38.389Z,-6.15
2018-02-24T01:21:04.426Z,-6.06
2018-02-24T01:23:30.256Z,-6.14
2018-02-24T01:25:56.198Z,-6.23
2018-02-24T01:28:23.513Z,-6.28
2018-02-24T01:30:49.497Z,-6.27
2018-02-24T01:33:15.431Z,-6.36
2018-02-24T01:35:41.388Z,-6.37
2018-02-24T01:38:07.280Z,-6.19
2018-02-24T01:40:33.132Z,-6.08
2018-02-24T01:42:59.142Z,-6.07
2018-02-24T01:45:25.086Z,-6.04
2018-02-24T01:47:50.948Z,-6.22
2018-02-24T01:50:16.869Z,-6.26
2018-02-24T01:52:42.745Z,-6.36
2018-02-24T01:55:08.726Z,-6.41
2018-02-24T01:57:34.769Z,-6.43
2018-02-24T02:00:00.642Z,-6.50
2018-02-24T02:02:26.577Z,-6.50
2018-02-24T02:04:52.793Z,-6.42
2018-02-24T02:07:18.765Z,-6.26
2018-02-24T02:09:44.713Z,-6.05
2018-02-24T02:12:10.647Z,-6.08
2018-02-24T02:14:36.504Z,-6.03
2018-02-24T02:17:02.360Z,-5.77
2018-02-24T02:19:28.397Z,-5.71
2018-02-24T02:21:54.324Z,-5.55
2018-02-24T02:24:20.185Z,-5.45
2018-02-24T02:26:46.105Z,-5.31
2018-02-24T02:29:11.948Z,-5.20
2018-02-24T02:31:37.927Z,-5.00
2018-02-24T02:34:03.931Z,-4.90
2018-02-24T02:36:29.823Z,-4.79
2018-02-24T02:38:55.698Z,-4.76
2018-02-24T02:41:21.626Z,-4.63
2018-02-24T02:43:47.620Z,-4.54
2018-02-24T02:46:13.578Z,-4.45
2018-02-24T02:48:39.507Z,-4.33
2018-02-24T02:51:05.387Z,-4.27
2018-02-24T02:53:31.291Z,-4.18
2018-02-24T02:55:57.304Z,-4.07
2018-02-24T02:58:23.258Z,-3.76
2018-02-24T03:00:49.130Z,-3.76
2018-02-24T03:03:15.058Z,-3.76
2018-02-24T03:05:40.974Z,-3.73
2018-02-24T03:08:06.983Z,-3.51
2018-02-24T03:10:33.318Z,-3.61
2018-02-24T03:12:59.206Z,-3.60
2018-02-24T03:15:25.066Z,-3.55
2018-02-24T03:17:50.986Z,-3.47
2018-02-24T03:20:16.986Z,-3.41
2018-02-24T03:22:42.938Z,-3.40
2018-02-24T03:25:08.902Z,-3.37
2018-02-24T03:27:34.752Z,-3.34
2018-02-24T03:30:00.638Z,-3.26
2018-02-24T03:32:26.694Z,-3.22
2018-02-24T03:34:52.640Z,-3.28
2018-02-24T03:37:18.597Z,-3.24
2018-02-24T03:39:44.520Z,-3.17
2018-02-24T03:42:10.426Z,-3.19
2018-02-24T03:44:36.420Z,-3.08
2018-02-24T03:47:02.401Z,-2.98
2018-02-24T03:49:28.342Z,-2.96
2018-02-24T03:51:54.226Z,-2.88
2018-02-24T03:54:20.532Z,-2.82
2018-02-24T03:56:46.551Z,-2.77
2018-02-24T03:59:12.538Z,-2.72
2018-02-24T04:01:38.456Z,-2.69
2018-02-24T04:04:04.339Z,-2.70
2018-02-24T04:06:30.293Z,-2.64
2018-02-24T04:08:56.338Z,-2.59
2018-02-24T04:11:22.291Z,-2.56
2018-02-24T04:13:48.182Z,-2.60
2018-02-24T04:16:14.290Z,-2.61
2018-02-24T04:18:40.188Z,-2.58
2018-02-24T04:21:06.188Z,-2.61
2018-02-24T04:23:32.570Z,-2.58
2018-02-24T04:25:58.413Z,-2.56
2018-02-24T04:28:24.281Z,-2.60
2018-02-24T04:30:50.252Z,-2.62
2018-02-24T04:33:16.243Z,-2.61
2018-02-24T04:35:42.169Z,-2.64
2018-02-24T04:38:08.415Z,-2.57
2018-02-24T04:40:34.281Z,-2.48
2018-02-24T04:43:00.171Z,-2.47
2018-02-24T04:45:26.197Z,-2.46
2018-02-24T04:47:52.162Z,-2.45
2018-02-24T04:50:18.054Z,-2.43
2018-02-24T04:52:43.989Z,-2.41
2018-02-24T04:55:09.862Z,-2.33
2018-02-24T04:57:35.880Z,-2.34
2018-02-24T05:00:01.866Z,-2.29
2018-02-24T05:02:27.745Z,-2.34
2018-02-24T05:04:53.596Z,-2.24
2018-02-24T05:07:19.513Z,-2.19
2018-02-24T05:09:45.508Z,-2.03
2018-02-24T05:12:11.476Z,-2.01
2018-02-24T05:14:37.411Z,-1.92
2018-02-24T05:17:03.281Z,-1.83
2018-02-24T05:19:29.157Z,-1.75
2018-02-24T05:21:55.575Z,-1.79
2018-02-24T05:24:21.502Z,-1.77
2018-02-24T05:26:47.414Z,-1.61
2018-02-24T05:29:13.310Z,-1.66
2018-02-24T05:31:39.187Z,-1.68
2018-02-24T05:34:05.236Z,-1.73
2018-02-24T05:36:31.238Z,-1.70
2018-02-24T05:38:57.121Z,-1.66
2018-02-24T05:41:23.017Z,-1.67
2018-02-24T05:43:48.942Z,-1.64
2018-02-24T05:46:14.915Z,-1.57
2018-02-24T05:48:40.852Z,-1.51
2018-02-24T05:51:06.772Z,-1.49
2018-02-24T05:53:32.637Z,-1.53
2018-02-24T05:55:58.592Z,-1.54
2018-02-24T05:58:24.974Z,-1.50
2018-02-24T06:00:51.489Z,-1.54
2018-02-24T06:03:17.407Z,-1.58
2018-02-24T06:05:43.417Z,-1.56
2018-02-24T06:08:09.487Z,-1.57
2018-02-24T06:10:35.452Z,-1.60
2018-02-24T06:13:01.592Z,-1.62
2018-02-24T06:15:27.467Z,-1.64
2018-02-24T06:17:53.340Z,-1.73
2018-02-24T06:20:19.276Z,-1.76
2018-02-24T06:22:45.303Z,-1.76
2018-02-24T06:25:11.261Z,-1.81
2018-02-24T06:27:37.205Z,-1.90
2018-02-24T06:30:03.077Z,-1.93
2018-02-24T06:32:28.975Z,-1.95
2018-02-24T06:34:55.072Z,-2.06
2018-02-24T06:37:21.071Z,-2.07
2018-02-24T06:39:46.983Z,-2.13
2018-02-24T06:42:12.904Z,-2.02
2018-02-24T06:44:38.760Z,-2.04
2018-02-24T06:47:04.814Z,-1.97
2018-02-24T06:49:30.802Z,-1.95
2018-02-24T06:51:56.722Z,-1.92
2018-02-24T06:54:22.598Z,-1.81
2018-02-24T06:56:48.862Z,-1.68
2018-02-24T06:59:14.868Z,-1.68
2018-02-24T07:01:40.820Z,-1.59
2018-02-24T07:04:06.732Z,-1.53
2018-02-24T07:06:32.705Z,-1.45
2018-02-24T07:08:58.614Z,-1.41
2018-02-24T07:11:24.805Z,-1.35
2018-02-24T07:13:50.740Z,-1.36
2018-02-24T07:16:16.651Z,-1.23
2018-02-24T07:18:42.581Z,-1.06
2018-02-24T07:21:08.494Z,-1.04
2018-02-24T07:23:34.514Z,-0.96
2018-02-24T07:26:00.555Z,-1.00
2018-02-24T07:28:26.409Z,-0.83
2018-02-24T07:30:52.375Z,-0.75
2018-02-24T07:33:18.597Z,-0.82
2018-02-24T07:35:44.596Z,-0.76
2018-02-24T07:38:10.550Z,-0.72
2018-02-24T07:40:37.102Z,-0.74
2018-02-24T07:43:02.987Z,-0.76
2018-02-24T07:45:28.866Z,-0.74
2018-02-24T07:47:54.878Z,-0.70
2018-02-24T07:50:20.825Z,-0.66
2018-02-24T07:52:46.745Z,-0.53
2018-02-24T07:55:12.702Z,-0.40
2018-02-24T07:57:38.561Z,-0.22
2018-02-24T08:00:04.577Z,-0.22
2018-02-24T08:02:30.593Z,-0.13
2018-02-24T08:04:56.462Z,-0.04
2018-02-24T08:07:22.337Z,0.11
2018-02-24T08:09:48.325Z,0.15
2018-02-24T08:12:14.318Z,0.09
2018-02-24T08:14:40.296Z,0.15
2018-02-24T08:17:06.246Z,0.15
2018-02-24T08:19:32.131Z,0.29
2018-02-24T08:21:58.035Z,0.47
2018-02-24T08:24:24.061Z,0.38
2018-02-24T08:26:50.007Z,0.52
2018-02-24T08:29:15.886Z,0.65
2018-02-24T08:31:42.231Z,0.64
2018-02-24T08:34:08.113Z,0.72
2018-02-24T08:36:34.097Z,0.69
2018-02-24T08:39:00.072Z,0.69
2018-02-24T08:41:26.017Z,0.47
2018-02-24T08:43:51.893Z,0.47
2018-02-24T08:46:17.812Z,0.18
2018-02-24T08:48:43.799Z,0.13
2018-02-24T08:51:09.786Z,-0.06
2018-02-24T08:53:35.760Z,-0.04
2018-02-24T08:56:01.641Z,-0.24
2018-02-24T08:58:27.552Z,-0.20
2018-02-24T09:00:53.592Z,-0.22
2018-02-24T09:03:19.572Z,-0.06
2018-02-24T09:05:49.590Z,0.15
2018-02-24T09:08:25.524Z,0.40
2018-02-24T09:10:51.430Z,0.69
2018-02-24T09:13:17.460Z,0.85
2018-02-24T09:15:43.526Z,1.10
2018-02-24T09:18:09.409Z,1.18
2018-02-24T09:20:35.302Z,1.11
2018-02-24T09:23:01.230Z,1.16
2018-02-24T09:25:27.314Z,0.96
2018-02-24T09:27:53.242Z,1.12
2018-02-24T09:30:19.202Z,1.04
2018-02-24T09:32:45.108Z,1.04
2018-02-24T09:35:10.999Z,0.97
2018-02-24T09:37:37.091Z,1.20
2018-02-24T09:40:02.974Z,1.25
2018-02-24T09:42:28.856Z,1.03
2018-02-24T09:44:54.801Z,0.62
2018-02-24T09:47:20.677Z,0.85
2018-02-24T09:49:46.690Z,1.19
2018-02-24T09:52:12.613Z,1.80
2018-02-24T09:54:38.495Z,2.25
2018-02-24T09:57:04.392Z,2.28
2018-02-24T09:59:30.380Z,2.20
2018-02-24T10:01:56.428Z,2.48
2018-02-24T10:04:22.326Z,2.81
2018-02-24T10:06:48.263Z,3.39
2018-02-24T10:09:14.144Z,3.55
2018-02-24T10:11:40.053Z,3.55
2018-02-24T10:14:06.086Z,3.27
2018-02-24T10:16:31.974Z,3.64
2018-02-24T10:18:57.897Z,3.95
2018-02-24T10:21:23.833Z,4.10
2018-02-24T10:23:49.758Z,4.40
2018-02-24T10:26:15.757Z,3.92
2018-02-24T10:28:41.682Z,3.58
2018-02-24T10:31:07.681Z,3.32
2018-02-24T10:33:33.569Z,2.75
2018-02-24T10:35:59.539Z,2.73
2018-02-24T10:38:25.625Z,2.74
2018-02-24T10:40:51.510Z,2.49
2018-02-24T10:43:17.450Z,2.58
2018-02-24T10:45:43.337Z,2.43
2018-02-24T10:48:09.264Z,2.78
2018-02-24T10:50:35.321Z,2.35
2018-02-24T10:53:01.210Z,2.25
2018-02-24T10:55:27.143Z,2.70
2018-02-24T10:57:53.122Z,3.12
2018-02-24T11:00:19.087Z,3.39
2018-02-24T11:02:45.127Z,3.38
2018-02-24T11:05:11.082Z,3.69
2018-02-24T11:07:36.946Z,3.79
2018-02-24T11:10:02.822Z,3.56
2018-02-24T11:12:29.165Z,3.89
2018-02-24T11:14:55.155Z,3.69
2018-02-24T11:17:21.017Z,3.64
2018-02-24T11:19:46.958Z,3.38
2018-02-24T11:22:12.834Z,3.10
2018-02-24T11:24:38.778Z,2.21
2018-02-24T11:27:04.855Z,2.52
2018-02-24T11:29:30.740Z,2.33
2018-02-24T11:31:56.638Z,2.28
2018-02-24T11:34:22.538Z,1.85
2018-02-24T11:36:48.462Z,1.86
2018-02-24T11:39:14.505Z,2.05
2018-02-24T11:41:40.465Z,1.90
2018-02-24T11:44:06.492Z,2.38
2018-02-24T11:46:32.408Z,2.51
2018-02-24T11:48:58.459Z,2.53
2018-02-24T11:51:28.557Z,3.31
2018-02-24T11:53:55.519Z,3.70
2018-02-24T11:56:21.614Z,3.70
2018-02-24T11:58:47.519Z,4.05
2018-02-24T12:01:13.535Z,4.54
2018-02-24T12:03:39.658Z,4.75
2018-02-24T12:06:05.554Z,4.64
2018-02-24T12:08:31.448Z,4.59
2018-02-24T12:10:57.399Z,4.84
2018-02-24T12:13:23.338Z,5.05
2018-02-24T12:15:49.795Z,4.77
2018-02-24T12:18:15.707Z,4.73
2018-02-24T12:20:41.596Z,5.17
2018-02-24T12:23:07.453Z,5.42
2018-02-24T12:25:33.526Z,5.53
2018-02-24T12:27:59.535Z,4.77
2018-02-24T12:30:25.427Z,4.37
2018-02-24T12:32:51.357Z,4.07
2018-02-24T12:35:17.583Z,3.62
2018-02-24T12:37:44.050Z,3.58
2018-02-24T12:40:10.151Z,3.48
2018-02-24T12:42:36.052Z,3.50
2018-02-24T12:45:01.914Z,3.76
2018-02-24T12:47:28.237Z,3.84
2018-02-24T12:49:54.201Z,3.57
2018-02-24T12:52:20.205Z,3.24
2018-02-24T12:54:46.265Z,2.92
2018-02-24T12:57:12.158Z,3.05
2018-02-24T12:59:38.030Z,2.89
2018-02-24T13:02:05.525Z,2.65
2018-02-24T13:04:32.186Z,2.35
2018-02-24T13:06:58.082Z,1.85
2018-02-24T13:09:25.047Z,1.77
2018-02-24T13:11:50.938Z,1.97
2018-02-24T13:14:16.861Z,1.75
2018-02-24T13:16:43.223Z,1.63
2018-02-24T13:19:09.114Z,1.51
2018-02-24T13:21:34.985Z,1.58
2018-02-24T13:24:00.885Z,1.48
2018-02-24T13:26:26.796Z,1.07
2018-02-24T13:28:52.778Z,1.11
2018-02-24T13:31:18.716Z,0.96
2018-02-24T13:33:44.597Z,1.07
2018-02-24T13:36:10.465Z,0.99
2018-02-24T13:38:37.383Z,1.05
2018-02-24T13:41:03.392Z,0.82
2018-02-24T13:43:29.277Z,0.88
2018-02-24T13:45:55.234Z,0.92
2018-02-24T13:48:21.135Z,0.95
2018-02-24T13:50:48.503Z,0.70
2018-02-24T13:53:15.159Z,0.77
2018-02-24T13:55:41.034Z,0.64
2018-02-24T13:58:06.912Z,0.65
2018-02-24T14:00:32.839Z,0.58
2018-02-24T14:02:58.798Z,0.52
2018-02-24T14:05:24.785Z,0.54
2018-02-24T14:07:50.703Z,0.51
2018-02-24T14:10:16.548Z,0.49
2018-02-24T14:12:42.511Z,0.47
2018-02-24T14:15:08.746Z,0.48
2018-02-24T14:17:35.284Z,0.27
2018-02-24T14:20:01.223Z,0.33
2018-02-24T14:22:27.137Z,0.33
2018-02-24T14:24:53.021Z,0.30
2018-02-24T14:27:18.945Z,0.55
2018-02-24T14:29:44.976Z,0.56
2018-02-24T14:32:10.881Z,0.34
2018-02-24T14:34:36.751Z,0.38
2018-02-24T14:37:02.706Z,0.19
2018-02-24T14:39:29.357Z,0.18
2018-02-24T14:41:55.336Z,-0.14
2018-02-24T14:44:21.253Z,-0.28
2018-02-24T14:46:47.124Z,-0.28
2018-02-24T14:49:13.504Z,-0.15
2018-02-24T14:51:39.405Z,-0.21
2018-02-24T14:54:06.074Z,-0.09
2018-02-24T14:56:31.965Z,0.20
2018-02-24T14:58:57.917Z,0.42
2018-02-24T15:01:23.793Z,0.36
2018-02-24T15:03:49.706Z,0.33
2018-02-24T15:06:15.760Z,0.36
2018-02-24T15:08:41.730Z,0.29
2018-02-24T15:11:07.598Z,0.09
2018-02-24T15:13:33.506Z,-0.06
2018-02-24T15:15:59.420Z,-0.10
2018-02-24T15:18:25.625Z,-0.15
2018-02-24T15:20:51.572Z,-0.36
2018-02-24T15:23:17.459Z,-0.48
2018-02-24T15:25:43.423Z,-0.50
2018-02-24T15:28:09.516Z,-0.71
2018-02-24T15:30:35.530Z,-0.78
2018-02-24T15:33:01.413Z,-0.82
2018-02-24T15:35:27.333Z,-0.77
2018-02-24T15:37:53.189Z,-0.85
2018-02-24T15:40:19.097Z,-0.84
2018-02-24T15:42:45.174Z,-0.85
2018-02-24T15:45:11.053Z,-0.88
2018-02-24T15:47:36.916Z,-0.87
2018-02-24T15:50:02.913Z,-1.01
2018-02-24T15:52:29.670Z,-1.15
2018-02-24T15:54:55.684Z,-1.15
2018-02-24T15:57:21.596Z,-1.14
2018-02-24T15:59:47.457Z,-1.20
2018-02-24T16:02:13.419Z,-1.22
2018-02-24T16:04:39.728Z,-1.30
2018-02-24T16:07:05.721Z,-1.32
2018-02-24T16:09:31.597Z,-1.36
2018-02-24T16:11:57.522Z,-1.44
2018-02-24T16:14:23.435Z,-1.51
2018-02-24T16:16:49.310Z,-1.56
2018-02-24T16:19:15.408Z,-1.59
2018-02-24T16:21:41.257Z,-1.66
2018-02-24T16:24:07.126Z,-1.70
2018-02-24T16:26:33.441Z,-1.72
2018-02-24T16:28:59.341Z,-1.81
2018-02-24T16:31:25.317Z,-1.84
2018-02-24T16:33:51.220Z,-1.86
2018-02-24T16:36:17.074Z,-1.92
2018-02-24T16:38:43.323Z,-1.99
2018-02-24T16:41:09.255Z,-2.01
2018-02-24T16:43:35.262Z,-2.06
2018-02-24T16:46:01.117Z,-2.18
2018-02-24T16:48:27.070Z,-2.06
2018-02-24T16:50:52.985Z,-2.21
2018-02-24T16:53:18.855Z,-2.11
2018-02-24T16:55:44.928Z,-2.02
2018-02-24T16:58:10.814Z,-2.14
2018-02-24T17:00:36.702Z,-2.25
2018-02-24T17:03:02.707Z,-2.25
2018-02-24T17:05:28.586Z,-2.32
2018-02-24T17:07:54.596Z,-2.33
2018-02-24T17:10:20.517Z,-2.33
2018-02-24T17:12:47.467Z,-2.39
2018-02-24T17:15:13.394Z,-2.45
2018-02-24T17:17:39.319Z,-2.57
2018-02-24T17:20:05.346Z,-2.60
2018-02-24T17:22:31.214Z,-2.64
2018-02-24T17:24:57.635Z,-2.61
2018-02-24T17:27:23.598Z,-2.60
2018-02-24T17:29:49.501Z,-2.54
2018-02-24T17:32:15.570Z,-2.66
2018-02-24T17:34:41.460Z,-2.60
2018-02-24T17:37:07.355Z,-2.68
2018-02-24T17:39:33.326Z,-2.62
2018-02-24T17:41:59.206Z,-2.73
2018-02-24T17:44:25.983Z,-2.82
2018-02-24T17:46:51.889Z,-2.79
2018-02-24T17:49:17.742Z,-2.85
2018-02-24T17:51:43.654Z,-2.98
2018-02-24T17:54:10.411Z,-3.03
2018-02-24T17:56:36.564Z,-3.07
2018-02-24T17:59:02.450Z,-3.13
2018-02-24T18:01:28.430Z,-3.14
2018-02-24T18:03:54.426Z,-3.22
2018-02-24T18:06:20.350Z,-3.26
2018-02-24T18:08:46.380Z,-3.22
2018-02-24T18:11:12.254Z,-3.30
2018-02-24T18:13:38.140Z,-3.31
2018-02-24T18:16:04.144Z,-3.34
2018-02-24T18:18:30.032Z,-3.38
2018-02-24T18:20:56.095Z,-3.41
2018-02-24T18:23:22.029Z,-3.36
2018-02-24T18:25:47.914Z,-3.32
2018-02-24T18:28:14.282Z,-3.32
2018-02-24T18:30:40.271Z,-3.30
2018-02-24T18:33:06.294Z,-3.35
2018-02-24T18:35:32.198Z,-3.41
2018-02-24T18:37:58.124Z,-3.33
2018-02-24T18:40:24.033Z,-3.35
2018-02-24T18:42:49.890Z,-3.48
2018-02-24T18:45:16.159Z,-3.43
2018-02-24T18:47:42.074Z,-3.54
2018-02-24T18:50:07.950Z,-3.44
2018-02-24T18:52:33.933Z,-3.47
2018-02-24T18:55:00.866Z,-3.57
2018-02-24T18:57:26.842Z,-3.59
2018-02-24T18:59:53.558Z,-3.62
2018-02-24T19:02:19.487Z,-3.70
2018-02-24T19:04:45.433Z,-3.82
2018-02-24T19:07:11.390Z,-3.67
2018-02-24T19:09:37.377Z,-3.75
2018-02-24T19:12:03.253Z,-3.74
2018-02-24T19:14:29.235Z,-3.72
2018-02-24T19:16:55.175Z,-3.74
2018-02-24T19:19:21.071Z,-3.83
2018-02-24T19:21:47.135Z,-3.86
2018-02-24T19:24:13.063Z,-3.89
2018-02-24T19:26:39.010Z,-3.95
2018-02-24T19:29:05.032Z,-3.97
2018-02-24T19:31:30.942Z,-3.94
2018-02-24T19:33:56.942Z,-3.91
2018-02-24T19:36:23.710Z,-3.91
2018-02-24T19:38:49.693Z,-3.88
2018-02-24T19:41:15.663Z,-3.92
2018-02-24T19:43:41.604Z,-3.88
2018-02-24T19:46:07.618Z,-3.97
2018-02-24T19:48:33.507Z,-4.06
2018-02-24T19:50:59.442Z,-4.11
2018-02-24T19:53:25.365Z,-4.07
2018-02-24T19:55:51.250Z,-4.02
2018-02-24T19:58:17.302Z,-4.03
2018-02-24T20:00:43.182Z,-4.05
2018-02-24T20:03:09.081Z,-4.02
2018-02-24T20:05:35.104Z,-4.12
2018-02-24T20:08:01.030Z,-4.13
2018-02-24T20:10:27.039Z,-4.14
2018-02-24T20:12:52.953Z,-4.20
2018-02-24T20:15:18.808Z,-4.21
2018-02-24T20:17:44.785Z,-4.20
2018-02-24T20:20:10.719Z,-4.23
2018-02-24T20:22:36.786Z,-4.25
2018-02-24T20:25:02.692Z,-4.30
2018-02-24T20:27:28.617Z,-4.28
2018-02-24T20:29:54.608Z,-4.36
2018-02-24T20:32:20.502Z,-4.37
2018-02-24T20:34:46.533Z,-4.33
2018-02-24T20:37:12.418Z,-4.35
2018-02-24T20:39:38.302Z,-4.37
2018-02-24T20:42:04.274Z,-4.45
2018-02-24T20:44:30.141Z,-4.37
2018-02-24T20:46:56.141Z,-4.33
2018-02-24T20:49:22.054Z,-4.32
2018-02-24T20:51:47.947Z,-4.37
2018-02-24T20:54:13.862Z,-4.41
2018-02-24T20:56:39.797Z,-4.39
2018-02-24T20:59:05.822Z,-4.46
2018-02-24T21:01:31.758Z,-4.47
2018-02-24T21:03:57.699Z,-4.44
2018-02-24T21:06:23.653Z,-4.51
2018-02-24T21:08:49.531Z,-4.44
2018-02-24T21:11:15.609Z,-4.55
2018-02-24T21:13:41.479Z,-4.59
2018-02-24T21:16:07.351Z,-4.57
2018-02-24T21:18:33.280Z,-4.66
2018-02-24T21:20:59.142Z,-4.67
2018-02-24T21:23:25.149Z,-4.70
2018-02-24T21:25:51.106Z,-4.74
2018-02-24T21:28:17.014Z,-4.65
2018-02-24T21:30:43.087Z,-4.66
2018-02-24T21:33:09.101Z,-4.78
2018-02-24T21:35:35.032Z,-4.61
2018-02-24T21:38:01.724Z,-4.76
2018-02-24T21:40:27.823Z,-4.80
2018-02-24T21:42:53.714Z,-4.81
2018-02-24T21:45:19.642Z,-4.87
2018-02-24T21:47:45.568Z,-4.91
2018-02-24T21:50:11.439Z,-4.86
2018-02-24T21:52:37.310Z,-4.89
2018-02-24T21:55:03.244Z,-4.89
2018-02-24T21:57:29.139Z,-5.04
2018-02-24T21:59:55.043Z,-5.01
2018-02-24T22:02:20.975Z,-4.87
2018-02-24T22:04:46.862Z,-4.92
2018-02-24T22:07:12.726Z,-5.01
2018-02-24T22:09:38.640Z,-5.09
2018-02-24T22:12:04.534Z,-5.06
2018-02-24T22:14:30.437Z,-5.19
2018-02-24T22:16:56.390Z,-5.21
2018-02-24T22:19:22.301Z,-5.26
2018-02-24T22:21:48.172Z,-5.30
2018-02-24T22:24:14.105Z,-5.39
2018-02-24T22:26:40.016Z,-5.30
2018-02-24T22:29:05.883Z,-5.25
2018-02-24T22:31:31.813Z,-5.36
2018-02-24T22:33:57.678Z,-5.44
2018-02-24T22:36:23.565Z,-5.50
2018-02-24T22:38:49.498Z,-5.52
2018-02-24T22:41:15.475Z,-5.57
2018-02-24T22:43:41.726Z,-5.59
2018-02-24T22:46:07.713Z,-5.68
2018-02-24T22:51:45.351Z,-5.75
2018-02-24T22:54:11.332Z,-5.79
2018-02-24T22:56:37.303Z,-5.86
2018-02-24T22:59:03.332Z,-5.90
2018-02-24T23:01:29.369Z,-5.89
2018-02-24T23:03:55.859Z,-5.99
2018-02-24T23:06:22.023Z,-6.03
2018-02-24T23:08:48.264Z,-6.07
2018-02-24T23:11:14.522Z,-6.10
2018-02-24T23:13:41.244Z,-6.09
2018-02-24T23:16:07.164Z,-6.02
2018-02-24T23:18:33.056Z,-6.04
2018-02-24T23:20:59.574Z,-5.97
2018-02-24T23:23:25.726Z,-6.09
2018-02-24T23:25:51.765Z,-6.15
2018-02-24T23:28:18.228Z,-6.10
2018-02-24T23:30:44.413Z,-6.23
2018-02-24T23:33:10.590Z,-6.27
2018-02-24T23:35:36.554Z,-6.15
2018-02-24T23:38:02.524Z,-6.26
2018-02-24T23:40:28.448Z,-6.25
2018-02-24T23:42:54.470Z,-6.16
2018-02-24T23:45:20.356Z,-6.22
2018-02-24T23:47:46.275Z,-6.20
2018-02-24T23:50:12.218Z,-6.22
2018-02-24T23:52:38.141Z,-6.25
2018-02-24T23:55:04.042Z,-6.24
2018-02-24T23:57:29.967Z,-6.23
2018-02-24T23:59:55.836Z,-6.32
